sensor_id;sensor_type;location;lat;lon;timestamp;pressure;altitude;pressure_sealevel;temperature;humidity
8280;BME280;8335;42.646;23.380;2024-01-10T00:02:22;140781.59;;;-3.50;85.02
8280;BME280;8335;42.646;23.380;2024-01-10T00:04:48;140779.16;;;-3.51;84.97
8280;BME280;8335;42.646;23.380;2024-01-10T00:07:17;140766.91;;;-3.56;85.28
8280;BME280;8335;42.646;23.380;2024-01-10T00:09:44;140752.16;;;-3.63;85.79
8280;BME280;8335;42.646;23.380;2024-01-10T00:12:11;140753.38;;;-3.62;86.63
8280;BME280;8335;42.646;23.380;2024-01-10T00:14:38;140761.97;;;-3.58;86.61
8280;BME280;8335;42.646;23.380;2024-01-10T00:17:04;140768.13;;;-3.56;87.58
8280;BME280;8335;42.646;23.380;2024-01-10T00:19:31;140771.81;;;-3.54;86.88
8280;BME280;8335;42.646;23.380;2024-01-10T00:21:58;140769.34;;;-3.55;85.63
8280;BME280;8335;42.646;23.380;2024-01-10T00:24:26;140771.81;;;-3.54;85.90
8280;BME280;8335;42.646;23.380;2024-01-10T00:26:52;140781.59;;;-3.50;85.76
8280;BME280;8335;42.646;23.380;2024-01-10T00:29:19;140781.59;;;-3.50;85.79
8280;BME280;8335;42.646;23.380;2024-01-10T00:31:46;140804.97;;;-3.41;86.02
8280;BME280;8335;42.646;23.380;2024-01-10T00:34:13;140815.97;;;-3.36;86.07
8280;BME280;8335;42.646;23.380;2024-01-10T00:36:39;140807.41;;;-3.40;85.50
8280;BME280;8335;42.646;23.380;2024-01-10T00:39:06;140814.75;;;-3.37;85.71
8280;BME280;8335;42.646;23.380;2024-01-10T00:41:34;140819.69;;;-3.35;85.67
8280;BME280;8335;42.646;23.380;2024-01-10T00:44:01;140824.59;;;-3.33;85.71
8280;BME280;8335;42.646;23.380;2024-01-10T00:46:27;140835.66;;;-3.28;85.18
8280;BME280;8335;42.646;23.380;2024-01-10T00:48:54;140833.16;;;-3.29;85.03
8280;BME280;8335;42.646;23.380;2024-01-10T00:51:21;140833.16;;;-3.29;84.97
8280;BME280;8335;42.646;23.380;2024-01-10T00:53:48;140830.72;;;-3.30;84.23
8280;BME280;8335;42.646;23.380;2024-01-10T00:56:14;140822.16;;;-3.34;84.77
8280;BME280;8335;42.646;23.380;2024-01-10T00:58:43;140818.47;;;-3.35;84.26
8280;BME280;8335;42.646;23.380;2024-01-10T01:01:10;140827.06;;;-3.32;84.14
8280;BME280;8335;42.646;23.380;2024-01-10T01:03:36;140833.16;;;-3.29;84.34
8280;BME280;8335;42.646;23.380;2024-01-10T01:06:03;140732.53;;;-3.71;84.79
8280;BME280;8335;42.646;23.380;2024-01-10T01:08:30;140823.38;;;-3.33;84.66
8280;BME280;8335;42.646;23.380;2024-01-10T01:10:56;140804.97;;;-3.41;84.10
8280;BME280;8335;42.646;23.380;2024-01-10T01:13:23;140825.81;;;-3.32;85.03
8280;BME280;8335;42.646;23.380;2024-01-10T01:15:51;140808.63;;;-3.39;84.65
8280;BME280;8335;42.646;23.380;2024-01-10T01:18:18;140803.72;;;-3.41;85.08
8280;BME280;8335;42.646;23.380;2024-01-10T01:20:45;140807.41;;;-3.40;85.26
8280;BME280;8335;42.646;23.380;2024-01-10T01:23:14;140812.31;;;-3.38;84.90
8280;BME280;8335;42.646;23.380;2024-01-10T01:25:40;140803.72;;;-3.41;85.27
8280;BME280;8335;42.646;23.380;2024-01-10T01:28:07;140801.28;;;-3.42;85.02
8280;BME280;8335;42.646;23.380;2024-01-10T01:30:34;140802.50;;;-3.42;85.41
8280;BME280;8335;42.646;23.380;2024-01-10T01:33:02;140807.41;;;-3.40;85.80
8280;BME280;8335;42.646;23.380;2024-01-10T01:35:30;140801.28;;;-3.42;85.87
8280;BME280;8335;42.646;23.380;2024-01-10T01:37:56;140814.75;;;-3.37;86.08
8280;BME280;8335;42.646;23.380;2024-01-10T01:40:23;140817.25;;;-3.36;85.85
8280;BME280;8335;42.646;23.380;2024-01-10T01:42:50;140818.47;;;-3.35;86.06
8280;BME280;8335;42.646;23.380;2024-01-10T01:45:16;140819.69;;;-3.35;85.55
8280;BME280;8335;42.646;23.380;2024-01-10T01:47:43;140820.91;;;-3.34;85.89
8280;BME280;8335;42.646;23.380;2024-01-10T01:50:12;140813.53;;;-3.37;86.10
8280;BME280;8335;42.646;23.380;2024-01-10T01:52:38;140828.28;;;-3.31;85.94
8280;BME280;8335;42.646;23.380;2024-01-10T01:55:07;140828.28;;;-3.31;85.82
8280;BME280;8335;42.646;23.380;2024-01-10T01:57:35;140829.50;;;-3.30;85.02
8280;BME280;8335;42.646;23.380;2024-01-10T02:00:02;140825.81;;;-3.32;84.84
8280;BME280;8335;42.646;23.380;2024-01-10T02:02:30;140814.75;;;-3.37;85.16
8280;BME280;8335;42.646;23.380;2024-01-10T02:04:57;140827.06;;;-3.32;84.73
8280;BME280;8335;42.646;23.380;2024-01-10T02:07:26;140830.72;;;-3.30;84.83
8280;BME280;8335;42.646;23.380;2024-01-10T02:09:53;140829.50;;;-3.30;85.16
8280;BME280;8335;42.646;23.380;2024-01-10T02:12:20;140815.97;;;-3.36;85.43
8280;BME280;8335;42.646;23.380;2024-01-10T02:14:47;140822.16;;;-3.34;85.43
8280;BME280;8335;42.646;23.380;2024-01-10T02:17:14;140829.50;;;-3.30;85.92
8280;BME280;8335;42.646;23.380;2024-01-10T02:19:41;140834.44;;;-3.28;85.47
8280;BME280;8335;42.646;23.380;2024-01-10T02:22:08;140830.72;;;-3.30;85.28
8280;BME280;8335;42.646;23.380;2024-01-10T02:24:37;140839.34;;;-3.26;84.40
8280;BME280;8335;42.646;23.380;2024-01-10T02:27:05;140835.66;;;-3.28;84.60
8280;BME280;8335;42.646;23.380;2024-01-10T02:29:34;140836.88;;;-3.27;84.17
8280;BME280;8335;42.646;23.380;2024-01-10T02:32:00;140814.75;;;-3.37;84.49
8280;BME280;8335;42.646;23.380;2024-01-10T02:34:29;140829.50;;;-3.30;84.29
8280;BME280;8335;42.646;23.380;2024-01-10T02:36:56;140749.72;;;-3.64;84.90
8280;BME280;8335;42.646;23.380;2024-01-10T02:39:23;140817.25;;;-3.36;84.33
8280;BME280;8335;42.646;23.380;2024-01-10T02:41:50;140806.19;;;-3.40;84.50
8280;BME280;8335;42.646;23.380;2024-01-10T02:44:18;140797.56;;;-3.44;85.53
8280;BME280;8335;42.646;23.380;2024-01-10T02:46:45;140792.66;;;-3.46;85.71
8280;BME280;8335;42.646;23.380;2024-01-10T02:49:11;140779.16;;;-3.51;85.66
8280;BME280;8335;42.646;23.380;2024-01-10T02:51:38;140763.19;;;-3.58;85.45
8280;BME280;8335;42.646;23.380;2024-01-10T02:54:05;140759.50;;;-3.60;84.83
8280;BME280;8335;42.646;23.380;2024-01-10T02:56:31;140752.16;;;-3.63;85.26
8280;BME280;8335;42.646;23.380;2024-01-10T02:58:58;140750.94;;;-3.63;85.15
8280;BME280;8335;42.646;23.380;2024-01-10T03:01:26;140750.94;;;-3.63;85.44
8280;BME280;8335;42.646;23.380;2024-01-10T03:03:53;140743.53;;;-3.66;85.53
8280;BME280;8335;42.646;23.380;2024-01-10T03:06:20;140753.38;;;-3.62;85.58
8280;BME280;8335;42.646;23.380;2024-01-10T03:08:46;140731.31;;;-3.71;85.79
8280;BME280;8335;42.646;23.380;2024-01-10T03:11:13;140709.19;;;-3.80;86.81
8280;BME280;8335;42.646;23.380;2024-01-10T03:13:40;140721.47;;;-3.75;86.95
8280;BME280;8335;42.646;23.380;2024-01-10T03:16:06;140734.97;;;-3.70;86.56
8280;BME280;8335;42.646;23.380;2024-01-10T03:18:34;140742.31;;;-3.67;86.93
8280;BME280;8335;42.646;23.380;2024-01-10T03:21:01;140742.31;;;-3.67;87.17
8280;BME280;8335;42.646;23.380;2024-01-10T03:23:28;140742.31;;;-3.67;86.76
8280;BME280;8335;42.646;23.380;2024-01-10T03:25:55;140752.16;;;-3.63;86.97
8280;BME280;8335;42.646;23.380;2024-01-10T03:28:22;140763.19;;;-3.58;86.24
8280;BME280;8335;42.646;23.380;2024-01-10T03:30:49;140758.28;;;-3.60;85.78
8280;BME280;8335;42.646;23.380;2024-01-10T03:33:16;140768.13;;;-3.56;86.39
8280;BME280;8335;42.646;23.380;2024-01-10T03:35:44;140779.16;;;-3.51;85.85
8280;BME280;8335;42.646;23.380;2024-01-10T03:38:11;140784.09;;;-3.49;86.41
8280;BME280;8335;42.646;23.380;2024-01-10T03:40:38;140785.31;;;-3.49;86.18
8280;BME280;8335;42.646;23.380;2024-01-10T03:43:04;140775.47;;;-3.53;85.59
8280;BME280;8335;42.646;23.380;2024-01-10T03:45:31;140769.34;;;-3.55;85.69
8280;BME280;8335;42.646;23.380;2024-01-10T03:47:58;140764.41;;;-3.57;85.75
8280;BME280;8335;42.646;23.380;2024-01-10T03:50:24;140755.84;;;-3.61;85.83
8280;BME280;8335;42.646;23.380;2024-01-10T03:52:52;140758.28;;;-3.60;85.11
8280;BME280;8335;42.646;23.380;2024-01-10T03:55:19;140744.78;;;-3.66;85.39
8280;BME280;8335;42.646;23.380;2024-01-10T03:57:46;140734.97;;;-3.70;86.07
8280;BME280;8335;42.646;23.380;2024-01-10T04:00:13;140734.97;;;-3.70;85.77
8280;BME280;8335;42.646;23.380;2024-01-10T04:02:39;140721.47;;;-3.75;85.02
8280;BME280;8335;42.646;23.380;2024-01-10T04:05:07;140617.16;;;-4.19;85.14
8280;BME280;8335;42.646;23.380;2024-01-10T04:07:35;140704.28;;;-3.82;84.72
8280;BME280;8335;42.646;23.380;2024-01-10T04:10:04;140687.09;;;-3.90;85.05
8280;BME280;8335;42.646;23.380;2024-01-10T04:12:32;140671.13;;;-3.96;85.35
8280;BME280;8335;42.646;23.380;2024-01-10T04:14:59;140668.69;;;-3.97;86.04
8280;BME280;8335;42.646;23.380;2024-01-10T04:17:26;140665.00;;;-3.99;86.09
8280;BME280;8335;42.646;23.380;2024-01-10T04:19:52;140668.69;;;-3.97;86.53
8280;BME280;8335;42.646;23.380;2024-01-10T04:22:19;140652.72;;;-4.04;86.91
8280;BME280;8335;42.646;23.380;2024-01-10T04:24:46;140682.19;;;-3.92;86.30
8280;BME280;8335;42.646;23.380;2024-01-10T04:27:14;140690.78;;;-3.88;86.57
8280;BME280;8335;42.646;23.380;2024-01-10T04:29:40;140696.94;;;-3.85;87.06
8280;BME280;8335;42.646;23.380;2024-01-10T04:32:07;140705.50;;;-3.82;87.19
8280;BME280;8335;42.646;23.380;2024-01-10T04:34:34;140710.41;;;-3.80;86.74
8280;BME280;8335;42.646;23.380;2024-01-10T04:37:01;140715.34;;;-3.78;86.31
8280;BME280;8335;42.646;23.380;2024-01-10T04:39:27;140709.19;;;-3.80;85.43
8280;BME280;8335;42.646;23.380;2024-01-10T04:41:54;140716.56;;;-3.77;86.05
8280;BME280;8335;42.646;23.380;2024-01-10T04:44:23;140737.44;;;-3.69;86.22
8280;BME280;8335;42.646;23.380;2024-01-10T04:46:49;140749.72;;;-3.64;85.84
8280;BME280;8335;42.646;23.380;2024-01-10T04:49:16;140747.22;;;-3.65;85.41
8280;BME280;8335;42.646;23.380;2024-01-10T04:51:43;140754.59;;;-3.62;85.28
8280;BME280;8335;42.646;23.380;2024-01-10T04:54:10;140761.97;;;-3.58;85.20
8280;BME280;8335;42.646;23.380;2024-01-10T04:56:37;140761.97;;;-3.58;85.36
8280;BME280;8335;42.646;23.380;2024-01-10T04:59:04;140761.97;;;-3.58;85.31
8280;BME280;8335;42.646;23.380;2024-01-10T05:01:32;140759.50;;;-3.60;85.05
8280;BME280;8335;42.646;23.380;2024-01-10T05:03:59;140765.69;;;-3.57;84.63
8280;BME280;8335;42.646;23.380;2024-01-10T05:06:25;140768.13;;;-3.56;84.20
8280;BME280;8335;42.646;23.380;2024-01-10T05:08:52;140764.41;;;-3.57;84.80
8280;BME280;8335;42.646;23.380;2024-01-10T05:11:23;140765.69;;;-3.57;84.36
8280;BME280;8335;42.646;23.380;2024-01-10T05:13:51;140755.84;;;-3.61;84.31
8280;BME280;8335;42.646;23.380;2024-01-10T05:16:18;140748.50;;;-3.64;83.79
8280;BME280;8335;42.646;23.380;2024-01-10T05:18:46;140742.31;;;-3.67;83.27
8280;BME280;8335;42.646;23.380;2024-01-10T05:21:13;140737.44;;;-3.69;83.04
8280;BME280;8335;42.646;23.380;2024-01-10T05:23:39;140723.91;;;-3.74;83.38
8280;BME280;8335;42.646;23.380;2024-01-10T05:26:06;140717.78;;;-3.77;83.05
8280;BME280;8335;42.646;23.380;2024-01-10T05:28:33;140710.41;;;-3.80;83.41
8280;BME280;8335;42.646;23.380;2024-01-10T05:31:00;140701.84;;;-3.83;83.25
8280;BME280;8335;42.646;23.380;2024-01-10T05:33:26;140703.06;;;-3.83;83.46
8280;BME280;8335;42.646;23.380;2024-01-10T05:35:54;140698.16;;;-3.85;83.82
8280;BME280;8335;42.646;23.380;2024-01-10T05:38:21;140690.78;;;-3.88;83.87
8280;BME280;8335;42.646;23.380;2024-01-10T05:40:48;140696.94;;;-3.85;83.66
8280;BME280;8335;42.646;23.380;2024-01-10T05:43:15;140695.66;;;-3.86;82.94
8280;BME280;8335;42.646;23.380;2024-01-10T05:45:41;140698.16;;;-3.85;82.07
8280;BME280;8335;42.646;23.380;2024-01-10T05:48:08;140669.91;;;-3.97;82.40
8280;BME280;8335;42.646;23.380;2024-01-10T05:50:35;140641.66;;;-4.08;82.22
8280;BME280;8335;42.646;23.380;2024-01-10T05:53:03;140711.63;;;-3.79;81.67
8280;BME280;8335;42.646;23.380;2024-01-10T05:55:30;140719.03;;;-3.76;81.38
8280;BME280;8335;42.646;23.380;2024-01-10T05:57:56;140717.78;;;-3.77;81.84
8280;BME280;8335;42.646;23.380;2024-01-10T06:00:24;140726.34;;;-3.73;81.08
8280;BME280;8335;42.646;23.380;2024-01-10T06:02:51;140727.59;;;-3.73;81.50
8280;BME280;8335;42.646;23.380;2024-01-10T06:05:17;140732.53;;;-3.71;81.39
8280;BME280;8335;42.646;23.380;2024-01-10T06:07:44;140711.63;;;-3.79;81.12
8280;BME280;8335;42.646;23.380;2024-01-10T06:10:12;140741.09;;;-3.67;80.16
8280;BME280;8335;42.646;23.380;2024-01-10T06:12:39;140758.28;;;-3.60;80.00
8280;BME280;8335;42.646;23.380;2024-01-10T06:15:07;140765.69;;;-3.57;80.58
8280;BME280;8335;42.646;23.380;2024-01-10T06:17:34;140765.69;;;-3.57;79.69
8280;BME280;8335;42.646;23.380;2024-01-10T06:20:00;140769.34;;;-3.55;79.46
8280;BME280;8335;42.646;23.380;2024-01-10T06:22:29;140770.56;;;-3.55;79.78
8280;BME280;8335;42.646;23.380;2024-01-10T06:24:55;140789.00;;;-3.47;79.66
8280;BME280;8335;42.646;23.380;2024-01-10T06:27:23;140791.44;;;-3.46;79.00
8280;BME280;8335;42.646;23.380;2024-01-10T06:29:50;140808.63;;;-3.39;78.24
8280;BME280;8335;42.646;23.380;2024-01-10T06:32:17;140812.31;;;-3.38;78.00
8280;BME280;8335;42.646;23.380;2024-01-10T06:34:44;140815.97;;;-3.36;78.29
8280;BME280;8335;42.646;23.380;2024-01-10T06:37:10;140834.44;;;-3.28;78.25
8280;BME280;8335;42.646;23.380;2024-01-10T06:39:37;140849.13;;;-3.22;78.88
8280;BME280;8335;42.646;23.380;2024-01-10T06:42:04;140868.84;;;-3.14;78.80
8280;BME280;8335;42.646;23.380;2024-01-10T06:44:35;140888.47;;;-3.06;79.29
8280;BME280;8335;42.646;23.380;2024-01-10T06:47:01;140884.75;;;-3.08;78.54
8280;BME280;8335;42.646;23.380;2024-01-10T06:49:29;140895.81;;;-3.03;77.56
8280;BME280;8335;42.646;23.380;2024-01-10T06:51:56;140904.44;;;-2.99;77.58
8280;BME280;8335;42.646;23.380;2024-01-10T06:54:22;140917.94;;;-2.94;76.90
8280;BME280;8335;42.646;23.380;2024-01-10T06:56:49;140930.22;;;-2.89;77.05
8280;BME280;8335;42.646;23.380;2024-01-10T06:59:16;140943.75;;;-2.83;76.70
8280;BME280;8335;42.646;23.380;2024-01-10T07:01:44;140957.28;;;-2.78;75.92
8280;BME280;8335;42.646;23.380;2024-01-10T07:04:10;141001.47;;;-2.59;75.80
8280;BME280;8335;42.646;23.380;2024-01-10T07:06:37;141038.34;;;-2.44;73.07
8280;BME280;8335;42.646;23.380;2024-01-10T07:09:04;141112.13;;;-2.13;72.38
8280;BME280;8335;42.646;23.380;2024-01-10T07:11:31;141153.91;;;-1.96;69.05
8280;BME280;8335;42.646;23.380;2024-01-10T07:13:58;141187.13;;;-1.82;67.61
8280;BME280;8335;42.646;23.380;2024-01-10T07:16:24;141275.66;;;-1.46;66.36
8280;BME280;8335;42.646;23.380;2024-01-10T07:18:53;141355.66;;;-1.13;65.03
8280;BME280;8335;42.646;23.380;2024-01-10T07:21:19;141479.97;;;-0.61;63.75
8280;BME280;8335;42.646;23.380;2024-01-10T07:23:46;141614.19;;;-0.06;63.03
8280;BME280;8335;42.646;23.380;2024-01-10T07:26:15;141779.28;;;0.63;60.47
8280;BME280;8335;42.646;23.380;2024-01-10T07:28:41;141966.69;;;1.40;57.88
8280;BME280;8335;42.646;23.380;2024-01-10T07:31:08;142144.34;;;2.13;55.68
8280;BME280;8335;42.646;23.380;2024-01-10T07:33:35;142303.66;;;2.79;53.25
8280;BME280;8335;42.646;23.380;2024-01-10T07:36:03;142463.00;;;3.45;50.52
8280;BME280;8335;42.646;23.380;2024-01-10T07:38:30;142598.94;;;4.01;48.41
8280;BME280;8335;42.646;23.380;2024-01-10T07:40:57;142730.00;;;4.55;46.38
8280;BME280;8335;42.646;23.380;2024-01-10T07:43:24;142895.81;;;5.23;45.23
8280;BME280;8335;42.646;23.380;2024-01-10T07:45:52;143051.78;;;5.87;42.70
8280;BME280;8335;42.646;23.380;2024-01-10T07:48:19;143204.13;;;6.50;41.31
8280;BME280;8335;42.646;23.380;2024-01-10T07:50:46;143324.34;;;6.99;39.78
8280;BME280;8335;42.646;23.380;2024-01-10T07:53:14;143418.56;;;7.38;37.71
8280;BME280;8335;42.646;23.380;2024-01-10T07:55:41;143437.16;;;7.45;37.27
8280;BME280;8335;42.646;23.380;2024-01-10T07:58:08;143466.94;;;7.58;37.15
8280;BME280;8335;42.646;23.380;2024-01-10T08:00:34;143542.56;;;7.89;37.18
8280;BME280;8335;42.646;23.380;2024-01-10T08:03:02;143577.31;;;8.03;35.80
8280;BME280;8335;42.646;23.380;2024-01-10T08:05:29;143665.44;;;8.39;35.33
8280;BME280;8335;42.646;23.380;2024-01-10T08:07:55;143717.56;;;8.61;34.19
8280;BME280;8335;42.646;23.380;2024-01-10T08:10:25;143656.72;;;8.36;32.95
8280;BME280;8335;42.646;23.380;2024-01-10T08:12:52;143619.47;;;8.20;33.67
8280;BME280;8335;42.646;23.380;2024-01-10T08:15:19;143636.84;;;8.27;33.39
8280;BME280;8335;42.646;23.380;2024-01-10T08:17:46;143697.72;;;8.52;33.66
8280;BME280;8335;42.646;23.380;2024-01-10T08:20:12;143764.75;;;8.80;33.40
8280;BME280;8335;42.646;23.380;2024-01-10T08:22:40;143779.66;;;8.86;32.90
8280;BME280;8335;42.646;23.380;2024-01-10T08:25:09;143666.69;;;8.40;32.93
8280;BME280;8335;42.646;23.380;2024-01-10T08:27:37;143491.72;;;7.68;33.84
8280;BME280;8335;42.646;23.380;2024-01-10T08:30:05;143450.81;;;7.51;34.06
8280;BME280;8335;42.646;23.380;2024-01-10T08:32:34;143475.59;;;7.61;33.69
8280;BME280;8335;42.646;23.380;2024-01-10T08:35:02;143491.72;;;7.68;34.41
8280;BME280;8335;42.646;23.380;2024-01-10T08:37:30;143556.22;;;7.94;34.26
8280;BME280;8335;42.646;23.380;2024-01-10T08:39:57;143669.16;;;8.41;34.32
8280;BME280;8335;42.646;23.380;2024-01-10T09:02:13;144019.28;;;9.84;33.24
8280;BME280;8335;42.646;23.380;2024-01-10T09:04:39;144103.78;;;10.19;32.27
8280;BME280;8335;42.646;23.380;2024-01-10T09:07:07;144194.56;;;10.56;31.63
8280;BME280;8335;42.646;23.380;2024-01-10T09:09:34;144189.59;;;10.54;31.14
8280;BME280;8335;42.646;23.380;2024-01-10T09:12:01;144255.50;;;10.81;30.65
8280;BME280;8335;42.646;23.380;2024-01-10T09:14:28;144234.38;;;10.72;30.12
8280;BME280;8335;42.646;23.380;2024-01-10T09:16:55;144250.53;;;10.79;31.97
8280;BME280;8335;42.646;23.380;2024-01-10T09:19:23;144271.66;;;10.88;31.60
8280;BME280;8335;42.646;23.380;2024-01-10T09:21:50;144257.97;;;10.82;29.97
8280;BME280;8335;42.646;23.380;2024-01-10T09:24:17;144107.50;;;10.20;30.62
8280;BME280;8335;42.646;23.380;2024-01-10T09:26:44;144055.31;;;9.99;30.62
8280;BME280;8335;42.646;23.380;2024-01-10T09:29:10;144073.94;;;10.07;31.09
8280;BME280;8335;42.646;23.380;2024-01-10T09:31:37;144143.59;;;10.35;31.35
8280;BME280;8335;42.646;23.380;2024-01-10T09:34:04;144224.41;;;10.68;31.39
8280;BME280;8335;42.646;23.380;2024-01-10T09:36:32;144301.47;;;11.00;30.46
8280;BME280;8335;42.646;23.380;2024-01-10T09:38:58;144322.66;;;11.09;29.08
8280;BME280;8335;42.646;23.380;2024-01-10T09:41:28;144264.19;;;10.85;28.63
8280;BME280;8335;42.646;23.380;2024-01-10T09:43:55;144234.38;;;10.72;28.91
8280;BME280;8335;42.646;23.380;2024-01-10T09:46:22;144224.41;;;10.68;28.96
8280;BME280;8335;42.646;23.380;2024-01-10T09:48:50;144184.66;;;10.52;28.27
8280;BME280;8335;42.646;23.380;2024-01-10T09:51:16;144166.00;;;10.44;29.63
8280;BME280;8335;42.646;23.380;2024-01-10T09:53:48;144146.13;;;10.36;29.41
8280;BME280;8335;42.646;23.380;2024-01-10T09:56:16;144185.88;;;10.53;29.50
8280;BME280;8335;42.646;23.380;2024-01-10T09:58:43;144197.03;;;10.57;29.63
8280;BME280;8335;42.646;23.380;2024-01-10T10:01:11;144199.56;;;10.58;29.29
8280;BME280;8335;42.646;23.380;2024-01-10T10:03:41;144199.56;;;10.58;30.04
8280;BME280;8335;42.646;23.380;2024-01-10T10:06:11;144225.66;;;10.69;29.42
8280;BME280;8335;42.646;23.380;2024-01-10T10:08:37;144172.19;;;10.47;29.02
8280;BME280;8335;42.646;23.380;2024-01-10T10:11:11;143906.28;;;9.38;29.88
8280;BME280;8335;42.646;23.380;2024-01-10T10:13:38;143793.25;;;8.92;31.12
8280;BME280;8335;42.646;23.380;2024-01-10T10:16:08;143718.81;;;8.61;31.54
8280;BME280;8335;42.646;23.380;2024-01-10T10:18:35;143715.09;;;8.60;32.41
8280;BME280;8335;42.646;23.380;2024-01-10T10:21:09;143757.25;;;8.77;32.67
8280;BME280;8335;42.646;23.380;2024-01-10T10:23:37;143773.41;;;8.83;32.22
8280;BME280;8335;42.646;23.380;2024-01-10T10:26:12;143825.53;;;9.05;31.72
8280;BME280;8335;42.646;23.380;2024-01-10T10:28:45;143782.13;;;8.87;32.04
8280;BME280;8335;42.646;23.380;2024-01-10T10:31:12;143716.31;;;8.60;32.18
8280;BME280;8335;42.646;23.380;2024-01-10T10:33:39;143696.47;;;8.52;33.05
8280;BME280;8335;42.646;23.380;2024-01-10T10:36:06;143716.31;;;8.60;34.07
8280;BME280;8335;42.646;23.380;2024-01-10T10:38:33;143770.94;;;8.82;33.68
8280;BME280;8335;42.646;23.380;2024-01-10T10:41:00;143722.50;;;8.63;33.35
8280;BME280;8335;42.646;23.380;2024-01-10T10:43:32;143650.50;;;8.33;33.20
8280;BME280;8335;42.646;23.380;2024-01-10T10:46:01;143600.84;;;8.13;33.84
8280;BME280;8335;42.646;23.380;2024-01-10T10:48:32;143555.00;;;7.94;35.37
8280;BME280;8335;42.646;23.380;2024-01-10T10:51:04;143545.03;;;7.90;35.46
8280;BME280;8335;42.646;23.380;2024-01-10T10:53:33;143589.72;;;8.08;34.73
8280;BME280;8335;42.646;23.380;2024-01-10T10:56:00;143550.00;;;7.92;35.08
8280;BME280;8335;42.646;23.380;2024-01-10T10:58:32;143517.78;;;7.79;34.98
8280;BME280;8335;42.646;23.380;2024-01-10T11:01:01;143365.28;;;7.16;35.75
8280;BME280;8335;42.646;23.380;2024-01-10T11:03:30;143298.31;;;6.88;36.78
8280;BME280;8335;42.646;23.380;2024-01-10T11:05:58;143314.44;;;6.95;36.90
8280;BME280;8335;42.646;23.380;2024-01-10T11:08:27;143226.47;;;6.59;37.29
8280;BME280;8335;42.646;23.380;2024-01-10T11:10:56;143248.75;;;6.68;38.10
8280;BME280;8335;42.646;23.380;2024-01-10T11:13:28;143274.78;;;6.79;37.31
8280;BME280;8335;42.646;23.380;2024-01-10T11:19:14;143160.78;;;6.32;38.39
8280;BME280;8335;42.646;23.380;2024-01-10T11:21:53;143159.56;;;6.31;38.58
8280;BME280;8335;42.646;23.380;2024-01-10T11:24:24;143101.38;;;6.07;40.04
8280;BME280;8335;42.646;23.380;2024-01-10T11:27:06;143054.25;;;5.88;39.98
8280;BME280;8335;42.646;23.380;2024-01-10T11:29:37;142991.09;;;5.62;40.63
8280;BME280;8335;42.646;23.380;2024-01-10T11:32:05;142966.34;;;5.52;40.45
8280;BME280;8335;42.646;23.380;2024-01-10T11:34:34;142941.56;;;5.42;40.46
8280;BME280;8335;42.646;23.380;2024-01-10T11:37:10;142940.31;;;5.41;41.06
8280;BME280;8335;42.646;23.380;2024-01-10T11:39:41;142835.13;;;4.98;40.92
8280;BME280;8335;42.646;23.380;2024-01-10T11:42:07;142868.56;;;5.12;41.79
8280;BME280;8335;42.646;23.380;2024-01-10T11:44:46;142780.72;;;4.76;41.98
8280;BME280;8335;42.646;23.380;2024-01-10T11:47:15;142770.84;;;4.72;43.20
8280;BME280;8335;42.646;23.380;2024-01-10T11:49:56;142715.16;;;4.49;43.17
8280;BME280;8335;42.646;23.380;2024-01-10T11:52:27;142763.41;;;4.68;43.92
8280;BME280;8335;42.646;23.380;2024-01-10T11:54:57;142660.75;;;4.26;44.77
8280;BME280;8335;42.646;23.380;2024-01-10T11:57:27;142626.13;;;4.12;45.14
8280;BME280;8335;42.646;23.380;2024-01-10T11:59:54;142632.34;;;4.14;46.22
8280;BME280;8335;42.646;23.380;2024-01-10T12:02:22;142474.06;;;3.49;47.33
8280;BME280;8335;42.646;23.380;2024-01-10T12:04:51;142495.13;;;3.58;47.52
8280;BME280;8335;42.646;23.380;2024-01-10T12:07:19;142491.38;;;3.56;48.29
8280;BME280;8335;42.646;23.380;2024-01-10T12:09:47;142470.38;;;3.48;48.55
8280;BME280;8335;42.646;23.380;2024-01-10T12:12:14;142413.56;;;3.24;48.85
8280;BME280;8335;42.646;23.380;2024-01-10T12:14:41;142401.19;;;3.19;49.02
8280;BME280;8335;42.646;23.380;2024-01-10T12:17:09;142367.84;;;3.06;49.72
8280;BME280;8335;42.646;23.380;2024-01-10T12:19:36;142325.88;;;2.88;49.57
8280;BME280;8335;42.646;23.380;2024-01-10T12:22:03;142322.16;;;2.87;51.17
8280;BME280;8335;42.646;23.380;2024-01-10T12:24:32;142335.72;;;2.92;51.86
8280;BME280;8335;42.646;23.380;2024-01-10T12:26:59;142323.41;;;2.87;51.17
8280;BME280;8335;42.646;23.380;2024-01-10T12:29:26;142303.66;;;2.79;51.60
8280;BME280;8335;42.646;23.380;2024-01-10T12:31:53;142333.25;;;2.91;52.26
8280;BME280;8335;42.646;23.380;2024-01-10T12:34:20;142283.84;;;2.71;53.05
8280;BME280;8335;42.646;23.380;2024-01-10T12:36:47;142280.16;;;2.69;52.83
8280;BME280;8335;42.646;23.380;2024-01-10T12:39:14;142287.59;;;2.72;52.38
8280;BME280;8335;42.646;23.380;2024-01-10T12:41:43;142276.47;;;2.68;52.10
8280;BME280;8335;42.646;23.380;2024-01-10T12:44:11;142245.59;;;2.55;53.65
8280;BME280;8335;42.646;23.380;2024-01-10T12:46:49;142177.69;;;2.27;53.63
8280;BME280;8335;42.646;23.380;2024-01-10T12:49:17;142145.59;;;2.14;54.31
8280;BME280;8335;42.646;23.380;2024-01-10T12:51:44;142112.31;;;2.00;54.38
8280;BME280;8335;42.646;23.380;2024-01-10T12:54:10;142056.75;;;1.77;55.91
8280;BME280;8335;42.646;23.380;2024-01-10T12:56:37;142029.63;;;1.66;56.58
8280;BME280;8335;42.646;23.380;2024-01-10T12:59:05;142016.03;;;1.60;56.89
8280;BME280;8335;42.646;23.380;2024-01-10T13:01:34;142009.91;;;1.58;56.68
8280;BME280;8335;42.646;23.380;2024-01-10T13:04:01;141979.03;;;1.45;56.96
8280;BME280;8335;42.646;23.380;2024-01-10T13:06:28;141956.84;;;1.36;58.33
8280;BME280;8335;42.646;23.380;2024-01-10T13:08:55;141930.94;;;1.25;58.29
8280;BME280;8335;42.646;23.380;2024-01-10T13:11:22;141911.22;;;1.17;59.29
8280;BME280;8335;42.646;23.380;2024-01-10T13:13:48;141953.13;;;1.34;58.92
8280;BME280;8335;42.646;23.380;2024-01-10T13:16:17;141934.63;;;1.27;59.37
8280;BME280;8335;42.646;23.380;2024-01-10T13:18:43;141961.78;;;1.38;60.30
8280;BME280;8335;42.646;23.380;2024-01-10T13:21:10;141974.13;;;1.43;59.18
8280;BME280;8335;42.646;23.380;2024-01-10T13:23:37;141976.59;;;1.44;59.07
8280;BME280;8335;42.646;23.380;2024-01-10T13:26:04;141974.13;;;1.43;58.99
8280;BME280;8335;42.646;23.380;2024-01-10T13:28:30;141960.53;;;1.37;58.86
8280;BME280;8335;42.646;23.380;2024-01-10T13:30:57;141949.44;;;1.33;59.92